Flight Track Log - Related Links

Times and Time Zones

All times are in EDT time to prevent confusion due to time zone crossing. See the N430WC flight status page for this flight to view local times or setup timezone preferences in your user account.

Time Position Orientation Groundspeed Altitude Reporting Facility
EDT Latitude Longitude Course Direction KTS MPH feet Rate Location/Type
Tue 06:32:45 PM 32.3761 -101.4475 21° North 397 457 40,000  Level Fort Worth Center
Tue 06:33:45 PM 32.4817 -101.4078 18° North 397 457 40,000  Level Fort Worth Center
Tue 06:34:45 PM 32.5872 -101.3706 17° North 397 457 40,000  Level Fort Worth Center
Tue 06:35:45 PM 32.6717 -101.3397 17° North 397 457 40,000  Level Fort Worth Center
Tue 06:36:00 PM 32.6429 -102.1320 307° West  Level FlightAware Approximate
Tue 06:36:45 PM 32.2269 -101.5981 206° Southwest 397 457 40,000  Level Fort Worth Center
Tue 06:37:45 PM 32.1817 -101.5861 167° South 461 531 40,000 -17,500 Level Fort Worth Center
Tue 06:38:45 PM 32.2228 -101.6592 304° West 352 405 5,000 -16,500 Descending Fort Worth Center
Tue 06:39:45 PM 32.2642 -101.7347 303° West 303 349 7,000 2,500 Climbing Fort Worth Center
Tue 06:40:45 PM 32.3181 -101.8061 312° West 286 329 10,000 2,900 Climbing Fort Worth Center
Tue 06:41:45 PM 32.3758 -101.8853 311° West 305 351 12,800 2,700 Climbing Fort Worth Center
Tue 06:42:45 PM 32.4353 -101.9717 309° West 324 373 15,400 2,550 Climbing Fort Worth Center
Tue 06:43:45 PM 32.4903 -102.0658 305° West 343 395 17,900 2,500 Climbing Fort Worth Center
Tue 06:44:45 PM 32.5408 -102.1669 301° West 354 407 20,400 2,400 Climbing Fort Worth Center
Tue 06:45:45 PM 32.6272 -102.2553 319° Northwest 359 413 22,700 1,750 Climbing Fort Worth Center
Tue 06:46:45 PM 32.7133 -102.3439 319° Northwest 384 442 23,900 1,100 Climbing Fort Worth Center
Tue 06:47:45 PM 32.7928 -102.4494 312° West 411 473 24,900 1,200 Climbing Fort Worth Center
Tue 06:48:45 PM 32.8717 -102.5603 310° West 426 490 26,300 1,400 Climbing Fort Worth Center
Tue 06:49:45 PM 32.9506 -102.6714 310° West 431 496 27,700 1,350 Climbing Fort Worth Center
Tue 06:50:45 PM 33.0314 -102.7850 310° West 442 509 29,000 1,250 Climbing Fort Worth Center
Tue 06:51:45 PM 33.1139 -102.8992 311° West 447 514 30,200 1,100 Climbing Fort Worth Center
Tue 06:52:45 PM 33.1964 -103.0158 310° West 452 520 31,200 950 Climbing Fort Worth Center
Tue 06:53:45 PM 33.2808 -103.1356 310° West 462 532 32,100 867 Climbing Fort Worth Center
Tue 06:54:15 PM 33.3089 -103.1789 308° West 468 539 32,500 978 Climbing Albuquerque Center
Tue 06:55:17 PM 33.3928 -103.2992 310° West 471 542 33,600 1,171 Climbing Albuquerque Center
Tue 06:56:18 PM 33.4764 -103.4189 310° West 471 542 34,900 1,317 Climbing Albuquerque Center
Tue 06:57:20 PM 33.5586 -103.5392 309° West 469 540 36,300 1,512 Climbing Albuquerque Center
Tue 06:58:21 PM 33.6569 -103.6736 311° West 456 525 38,000 1,561 Climbing Albuquerque Center
Tue 06:59:23 PM 33.7442 -103.7956 311° West 451 519 39,500 976 Climbing Albuquerque Center
Tue 07:00:24 PM 33.8183 -103.9061 309° West 433 498 40,000 244 Climbing Albuquerque Center
Tue 07:01:26 PM 33.8972 -104.0200 310° West 442 509 40,000  Level Albuquerque Center
Tue 07:02:27 PM 33.9828 -104.1442 310° West 448 516 40,000  Level Albuquerque Center
Tue 07:03:29 PM 34.0603 -104.2592 309° West 442 509 40,000  Level Albuquerque Center
Tue 07:04:30 PM 34.1383 -104.3725 310° West 436 502 40,000  Level Albuquerque Center
Tue 07:05:31 PM 34.2169 -104.4886 309° West 439 505 40,000  Level Albuquerque Center
Tue 07:06:33 PM 34.2942 -104.6008 310° West 434 499 40,000  Level Albuquerque Center
Tue 07:07:34 PM 34.3725 -104.7156 310° West 433 498 40,000  Level Albuquerque Center
Tue 07:08:36 PM 34.4500 -104.8308 309° West 435 501 40,000  Level Albuquerque Center
Tue 07:09:37 PM 34.5269 -104.9450 309° West 433 498 40,000  Level Albuquerque Center
Tue 07:10:39 PM 34.6044 -105.0597 309° West 432 497 40,000  Level Albuquerque Center
Tue 07:11:40 PM 34.6831 -105.1783 309° West 441 507 40,000  Level Albuquerque Center
Tue 07:12:42 PM 34.7636 -105.2978 309° West 448 516 40,000  Level Albuquerque Center
Tue 07:13:43 PM 34.8425 -105.4156 309° West 446 513 40,000  Level Albuquerque Center
Tue 07:14:45 PM 34.9206 -105.5333 309° West 444 511 40,000  Level Albuquerque Center
Tue 07:15:46 PM 34.9981 -105.6503 309° West 441 507 40,000  Level Albuquerque Center
Tue 07:16:47 PM 35.0869 -105.7850 309° West 435 501 40,000  Level Albuquerque Center
Tue 07:17:49 PM 35.1611 -105.9011 308° West 431 496 40,000  Level Albuquerque Center
Tue 07:18:50 PM 35.2372 -106.0169 309° West 431 496 40,000  Level Albuquerque Center
Tue 07:19:52 PM 35.3144 -106.1350 309° West 438 504 40,000  Level Albuquerque Center
Tue 07:20:53 PM 35.3803 -106.2350 309° West 440 506 40,000  Level Albuquerque Center
Tue 07:21:55 PM 35.4700 -106.3728 309° West 435 501 40,000  Level Albuquerque Center
Tue 07:22:56 PM 35.5436 -106.4875 308° West 432 497 40,000  Level Albuquerque Center
Tue 07:23:58 PM 35.6178 -106.6003 309° West 429 494 40,000  Level Albuquerque Center
Tue 07:24:59 PM 35.6981 -106.7094 312° West 432 497 40,000  Level Albuquerque Center
Tue 07:26:01 PM 35.7778 -106.8200 312° West 433 498 40,000  Level Albuquerque Center
Tue 07:27:02 PM 35.8578 -106.9306 312° West 436 502 40,000  Level Albuquerque Center
Tue 07:28:04 PM 35.9369 -107.0406 312° West 433 498 40,000  Level Albuquerque Center
Tue 07:29:05 PM 36.0336 -107.1753 312° West 436 502 40,000  Level Albuquerque Center
Tue 07:30:07 PM 36.1136 -107.2864 312° West 434 499 40,000  Level Albuquerque Center
Tue 07:31:08 PM 36.1933 -107.3986 311° West 434 499 40,000  Level Albuquerque Center
Tue 07:32:09 PM 36.2731 -107.5128 311° West 438 504 40,000  Level Albuquerque Center
Tue 07:33:11 PM 36.3522 -107.6233 312° West 432 497 40,000  Level Albuquerque Center
Tue 07:34:12 PM 36.4314 -107.7364 311° West 433 498 40,000  Level Albuquerque Center
Tue 07:35:14 PM 36.5094 -107.8486 311° West 431 496 40,000  Level Albuquerque Center
Tue 07:36:19 PM 36.5997 -107.9894 309° West 427 491 40,000  Level Denver Center
Tue 07:37:21 PM 36.6781 -108.1014 311° West 427 491 40,000  Level Denver Center
Tue 07:38:23 PM 36.7531 -108.2119 310° West 428 493 40,000  Level Denver Center
Tue 07:39:24 PM 36.8408 -108.3347 312° West 425 489 40,000  Level Denver Center
Tue 07:40:26 PM 36.9147 -108.4422 311° West 425 489 40,000  Level Denver Center
Tue 07:41:28 PM 37.0008 -108.5683 311° West 426 490 40,000  Level Denver Center
Tue 07:42:30 PM 37.0742 -108.6792 310° West 428 493 40,000  Level Denver Center
Tue 07:43:32 PM 37.1717 -108.7881 318° Northwest 431 496 40,000  Level Denver Center
Tue 07:44:34 PM 37.2647 -108.8722 324° Northwest 435 501 40,000  Level Denver Center
Tue 07:45:36 PM 37.3728 -108.9675 325° Northwest 429 494 40,000  Level Denver Center
Tue 07:46:37 PM 37.4575 -109.0606 319° Northwest 426 490 40,000  Level Denver Center
Tue 07:47:39 PM 37.5286 -109.1692 310° West 421 484 40,000  Level Denver Center
Tue 07:48:41 PM 37.6164 -109.2942 312° West 426 490 40,000  Level Denver Center
Tue 07:49:43 PM 37.6908 -109.3992 312° West 421 484 40,000  Level Denver Center
Tue 07:50:45 PM 37.7769 -109.5239 311° West 419 482 40,000  Level Denver Center
Tue 07:51:47 PM 37.8542 -109.6353 311° West 421 484 40,000  Level Denver Center
Tue 07:52:48 PM 37.9322 -109.7475 311° West 424 488 40,000  Level Denver Center
Tue 07:54:03 PM 38.0244 -109.8836 311° West 425 489 40,000  Level Denver Center
Tue 07:55:04 PM 38.1119 -110.0114 311° West 427 491 40,000  Level Denver Center
Tue 07:56:06 PM 38.1861 -110.1189 311° West 424 488 40,000  Level Denver Center
Tue 07:57:08 PM 38.2722 -110.2472 311° West 426 490 40,000  Level Denver Center
Tue 07:58:10 PM 38.3461 -110.3569 311° West 427 491 40,000  Level Denver Center
Tue 07:59:13 PM 38.4319 -110.4814 311° West 423 487 40,000  Level Denver Center
Tue 08:00:15 PM 38.5044 -110.5897 311° West 420 483 40,000  Level Denver Center
Tue 08:01:16 PM 38.5769 -110.6992 310° West 421 484 40,000  Level Denver Center
Tue 08:02:42 PM 38.6872 -110.8622 311° West 422 486 40,000  Level Salt Lake Center
Tue 08:03:44 PM 38.7733 -110.9942 310° West 425 489 40,000  Level Salt Lake Center
Tue 08:04:45 PM 38.8497 -111.1086 311° West 425 489 40,000  Level Salt Lake Center
Tue 08:05:47 PM 38.9236 -111.2228 310° West 421 484 40,000  Level Salt Lake Center
Tue 08:06:49 PM 39.0003 -111.3383 311° West 424 488 40,000  Level Salt Lake Center
Tue 08:07:51 PM 39.0758 -111.4539 310° West 424 488 40,000  Level Salt Lake Center
Tue 08:08:52 PM 39.1511 -111.5689 310° West 422 486 40,000  Level Salt Lake Center
Tue 08:09:54 PM 39.2253 -111.6836 310° West 419 482 40,000  Level Salt Lake Center
Tue 08:10:56 PM 39.3114 -111.8181 310° West 419 482 40,000  Level Salt Lake Center
Tue 08:11:57 PM 39.3856 -111.9356 309° West 422 486 40,000  Level Salt Lake Center
Tue 08:12:59 PM 39.4614 -112.0522 310° West 424 488 40,000  Level Salt Lake Center
Tue 08:14:01 PM 39.5364 -112.1694 310° West 424 488 40,000  Level Salt Lake Center
Tue 08:15:02 PM 39.6108 -112.2869 309° West 423 487 40,000  Level Salt Lake Center
Tue 08:16:04 PM 39.6861 -112.4053 310° West 425 489 40,000  Level Salt Lake Center
Tue 08:17:06 PM 39.7758 -112.5472 309° West 424 488 40,000  Level Salt Lake Center
Tue 08:18:07 PM 39.8508 -112.6650 310° West 423 487 40,000  Level Salt Lake Center
Tue 08:19:10 PM 39.9250 -112.7844 309° West 424 488 40,000  Level Salt Lake Center
Tue 08:20:11 PM 40.0011 -112.9044 310° West 429 494 40,000  Level Salt Lake Center
Tue 08:21:12 PM 40.0769 -113.0253 309° West 429 494 40,000  Level Salt Lake Center
Tue 08:22:14 PM 40.1503 -113.1425 309° West 422 486 40,000  Level Salt Lake Center
Tue 08:23:16 PM 40.2253 -113.2636 309° West 425 489 40,000  Level Salt Lake Center
Tue 08:24:17 PM 40.2994 -113.3867 308° West 430 495 40,000  Level Salt Lake Center
Tue 08:25:19 PM 40.3900 -113.5328 309° West 430 495 40,000  Level Salt Lake Center
Tue 08:26:20 PM 40.4639 -113.6547 309° West 428 493 40,000  Level Salt Lake Center
Tue 08:27:22 PM 40.5381 -113.7758 309° West 426 490 40,000  Level Salt Lake Center
Tue 08:28:24 PM 40.6092 -113.8950 308° West 418 481 40,000  Level Salt Lake Center
Tue 08:29:25 PM 40.6833 -114.0150 309° West 422 486 40,000  Level Salt Lake Center
Tue 08:30:27 PM 40.7536 -114.1344 308° West 415 478 40,000  Level Salt Lake Center
Tue 08:31:28 PM 40.8256 -114.2536 309° West 414 476 40,000  Level Salt Lake Center
Tue 08:32:30 PM 40.8992 -114.3750 309° West 421 484 40,000  Level Salt Lake Center
Tue 08:33:32 PM 40.9831 -114.5200 307° West 420 483 40,000  Level Salt Lake Center
Tue 08:34:33 PM 41.0569 -114.6433 308° West 421 484 40,000  Level Salt Lake Center
Tue 08:35:35 PM 41.1272 -114.7653 307° West 418 481 40,000  Level Salt Lake Center
Tue 08:36:37 PM 41.1992 -114.8881 308° West 417 480 40,000  Level Salt Lake Center
Tue 08:37:39 PM 41.2678 -115.0050 308° West 417 480 40,000  Level Salt Lake Center
Tue 08:38:40 PM 41.3458 -115.1406 308° West 414 476 40,000  Level Salt Lake Center
Tue 08:39:42 PM 41.4144 -115.2567 308° West 418 481 40,000  Level Salt Lake Center
Tue 08:40:44 PM 41.4928 -115.3936 307° West 416 479 40,000  Level Salt Lake Center
Tue 08:41:45 PM 41.5597 -115.5114 307° West 416 479 40,000  Level Salt Lake Center
Tue 08:42:47 PM 41.6383 -115.6481 308° West 417 480 40,000  Level Salt Lake Center
Tue 08:43:49 PM 41.7053 -115.7664 307° West 417 480 40,000  Level Salt Lake Center
Tue 08:44:50 PM 41.7839 -115.9033 308° West 416 479 40,000  Level Salt Lake Center
Tue 08:45:52 PM 41.8517 -116.0261 307° West 423 487 40,000  Level Salt Lake Center
Tue 08:46:54 PM 41.9183 -116.1436 307° West 415 478 40,000  Level Salt Lake Center
Tue 08:47:55 PM 41.9950 -116.2822 307° West 414 476 40,000  Level Salt Lake Center
Tue 08:48:57 PM 42.0658 -116.4094 307° West 411 473 40,000  Level Salt Lake Center
Tue 08:49:59 PM 42.1314 -116.5278 307° West 410 472 40,000  Level Salt Lake Center
Tue 08:51:00 PM 42.2081 -116.6672 307° West 413 475 40,000  Level Salt Lake Center
Tue 08:52:02 PM 42.2800 -116.7961 307° West 414 476 40,000  Level Salt Lake Center
Tue 08:53:03 PM 42.3492 -116.9247 306° West 411 473 40,000  Level Salt Lake Center
Tue 08:54:05 PM 42.4142 -117.0447 306° West 410 472 40,000  Level Salt Lake Center
Tue 08:55:07 PM 42.4794 -117.1644 307° West 412 474 40,000  Level Salt Lake Center
Tue 08:56:08 PM 42.5553 -117.3047 306° West 414 476 40,000  Level Salt Lake Center
Tue 08:57:10 PM 42.6203 -117.4258 306° West 416 479 40,000  Level Salt Lake Center
Tue 08:58:12 PM 42.6964 -117.5681 306° West 416 479 40,000  Level Salt Lake Center
Tue 08:59:15 PM 42.7611 -117.6881 306° West 410 472 40,000  Level Salt Lake Center
Tue 09:00:17 PM 42.8353 -117.8289 306° West 407 468 40,000  Level Salt Lake Center
Tue 09:01:18 PM 42.8994 -117.9494 306° West 409 471 40,000  Level Salt Lake Center
Tue 09:02:20 PM 42.9619 -118.0689 306° West 404 465 40,000  Level Salt Lake Center
Tue 09:03:21 PM 43.0350 -118.2100 305° West 405 466 40,000  Level Salt Lake Center
Tue 09:04:23 PM 43.0972 -118.3236 307° West 404 465 40,000  Level Salt Lake Center
Tue 09:05:24 PM 43.1614 -118.4489 305° West 402 463 40,000  Level Salt Lake Center
Tue 09:06:26 PM 43.2261 -118.5756 305° West 404 465 40,000  Level Salt Lake Center
Tue 09:07:27 PM 43.3042 -118.7256 306° West 402 463 40,000  Level Salt Lake Center
Tue 09:08:29 PM 43.3692 -118.8528 305° West 405 466 40,000  Level Salt Lake Center
Tue 09:09:14 PM 43.4208 -118.9536 305° West 404 465 40,000  Level Seattle Center
Tue 09:10:15 PM 43.4858 -119.0794 305° West 405 466 40,000  Level Seattle Center
Tue 09:11:16 PM 43.5503 -119.2061 305° West 405 466 40,000  Level Seattle Center
Tue 09:12:17 PM 43.6147 -119.3342 305° West 405 466 40,000  Level Seattle Center
Tue 09:13:18 PM 43.6792 -119.4606 305° West 404 465 40,000  Level Seattle Center
Tue 09:14:19 PM 43.7433 -119.5892 305° West 407 468 40,000  Level Seattle Center
Tue 09:15:20 PM 43.8072 -119.7192 304° West 407 468 40,000  Level Seattle Center
Tue 09:16:21 PM 43.8711 -119.8472 305° West 404 465 40,000  Level Seattle Center
Tue 09:17:21 PM 43.9342 -119.9767 304° West 405 466 40,000  Level Seattle Center
Tue 09:18:22 PM 43.9992 -120.1064 305° West 408 470 40,000  Level Seattle Center
Tue 09:19:23 PM 44.0669 -120.2347 306° West 412 474 40,000  Level Seattle Center
Tue 09:20:24 PM 44.1561 -120.3417 319° Northwest 420 483 40,000  Level Seattle Center
Tue 09:21:25 PM 44.2472 -120.4489 320° Northwest 427 491 40,000 -49 Level Seattle Center
Tue 09:22:26 PM 44.3381 -120.5525 321° Northwest 423 487 39,900  Descending Seattle Center
Tue 09:23:27 PM 44.4350 -120.6569 322° Northwest 421 484 40,000 -590 Climbing Seattle Center
Tue 09:24:28 PM 44.5206 -120.7550 321° Northwest 405 466 38,700 -1,574 Descending Seattle Center
Tue 09:25:29 PM 44.5664 -120.8817 297° West 371 427 36,800 -2,164 Descending Seattle Center
Tue 09:26:30 PM 44.6058 -121.0414 289° West 365 420 34,300 -2,213 Descending Seattle Center
Tue 09:27:31 PM 44.6397 -121.1733 290° West 365 420 32,300 -1,967 Descending Seattle Center
Tue 09:28:32 PM 44.6739 -121.3061 290° West 363 418 30,300 -1,967 Descending Seattle Center
Tue 09:29:33 PM 44.7069 -121.4414 289° West 366 421 28,300 -1,967 Descending Seattle Center
Tue 09:30:34 PM 44.7428 -121.5819 290° West 379 436 26,300 -1,967 Descending Seattle Center
Tue 09:31:35 PM 44.7753 -121.7242 288° West 384 442 24,300 -1,967 Descending Seattle Center
Tue 09:32:36 PM 44.8108 -121.8650 290° West 384 442 22,300 -1,967 Descending Seattle Center
Tue 09:33:37 PM 44.8461 -121.9997 290° West 373 429 20,300 -1,967 Descending Seattle Center
Tue 09:34:38 PM 44.8750 -122.1183 289° West 333 383 18,300 -2,016 Descending Seattle Center
Tue 09:35:39 PM 44.9006 -122.2275 288° West 318 366 16,200 -2,311 Descending Seattle Center
Tue 09:36:40 PM 44.9542 -122.3494 302° West 318 366 13,600 -2,311 Descending Seattle Center
Tue 09:37:41 PM 45.0225 -122.4269 321° Northwest 323 372 11,500 -2,016 Descending Seattle Center
Tue 09:38:42 PM 45.1064 -122.4644 342° North 319 367 9,500 -1,918 Descending Seattle Center
Tue 09:39:43 PM 45.1867 -122.5033 341° North 310 357 7,600 -1,820 Descending Seattle Center
Tue 09:40:44 PM 45.2658 -122.5414 341° North 304 350 5,800 -1,279 Descending Seattle Center
Tue 09:41:45 PM 45.3408 -122.5783 341° North 295 339 5,000 -639 Descending Seattle Center
Tue 09:42:46 PM 45.4053 -122.6064 343° North 261 300 4,500 -934 Descending Seattle Center
Tue 09:43:47 PM 45.4539 -122.6581 323° Northwest 245 282 3,100 -738 Descending Seattle Center
Tue 09:44:48 PM 45.4522 -122.7256 268° West 207 238 3,000 -49 Descending Seattle Center
Tue 09:45:49 PM 45.4017 -122.7436 194° South 192 221 3,000 -443 Level Seattle Center
Tue 09:46:50 PM 45.3511 -122.7517 186° South 161 185 2,100 -590 Descending Seattle Center
Tue 09:47:51 PM 45.3214 -122.7583 189° South 140 161 1,800 -295 Descending Seattle Center

Login

Don't have an account? Register now (free) for customized features, flight alerts, and more!